sensor_id;sensor_type;location;lat;lon;timestamp;temperature;humidity
7143;DHT22;3613;48.902;9.204;2024-03-08T00:02:00;17.50;99.90
7143;DHT22;3613;48.902;9.204;2024-03-08T00:04:25;17.50;99.90
7143;DHT22;3613;48.902;9.204;2024-03-08T00:06:51;17.40;99.90
7143;DHT22;3613;48.902;9.204;2024-03-08T00:09:16;17.50;99.90
7143;DHT22;3613;48.902;9.204;2024-03-08T00:11:44;17.50;99.90
7143;DHT22;3613;48.902;9.204;2024-03-08T00:14:10;17.50;99.90
7143;DHT22;3613;48.902;9.204;2024-03-08T00:16:35;17.50;99.90
7143;DHT22;3613;48.902;9.204;2024-03-08T00:19:01;17.50;99.90
7143;DHT22;3613;48.902;9.204;2024-03-08T00:21:29;17.50;99.90
7143;DHT22;3613;48.902;9.204;2024-03-08T00:23:57;17.50;99.90
7143;DHT22;3613;48.902;9.204;2024-03-08T00:26:23;17.40;99.90
7143;DHT22;3613;48.902;9.204;2024-03-08T00:28:49;17.50;99.90
7143;DHT22;3613;48.902;9.204;2024-03-08T00:31:14;17.40;99.90
7143;DHT22;3613;48.902;9.204;2024-03-08T00:33:42;17.50;99.90
7143;DHT22;3613;48.902;9.204;2024-03-08T00:36:08;17.40;99.90
7143;DHT22;3613;48.902;9.204;2024-03-08T00:38:36;17.40;99.90
7143;DHT22;3613;48.902;9.204;2024-03-08T00:41:01;17.50;99.90
7143;DHT22;3613;48.902;9.204;2024-03-08T00:43:27;17.40;99.90
7143;DHT22;3613;48.902;9.204;2024-03-08T00:45:53;17.40;99.90
7143;DHT22;3613;48.902;9.204;2024-03-08T00:48:21;17.40;99.90
7143;DHT22;3613;48.902;9.204;2024-03-08T00:50:46;17.30;99.90
7143;DHT22;3613;48.902;9.204;2024-03-08T00:53:12;17.40;99.90
7143;DHT22;3613;48.902;9.204;2024-03-08T00:55:38;17.40;99.90
7143;DHT22;3613;48.902;9.204;2024-03-08T00:58:07;17.40;99.90
7143;DHT22;3613;48.902;9.204;2024-03-08T01:00:34;17.40;99.90
7143;DHT22;3613;48.902;9.204;2024-03-08T01:03:00;17.30;99.90
7143;DHT22;3613;48.902;9.204;2024-03-08T01:05:25;17.30;99.90
7143;DHT22;3613;48.902;9.204;2024-03-08T01:07:54;17.30;99.90
7143;DHT22;3613;48.902;9.204;2024-03-08T01:10:19;17.40;99.90
7143;DHT22;3613;48.902;9.204;2024-03-08T01:12:45;17.30;99.90
7143;DHT22;3613;48.902;9.204;2024-03-08T01:15:10;17.30;99.90
7143;DHT22;3613;48.902;9.204;2024-03-08T01:17:37;17.20;99.90
7143;DHT22;3613;48.902;9.204;2024-03-08T01:20:05;17.30;99.90
7143;DHT22;3613;48.902;9.204;2024-03-08T01:22:31;17.20;99.90
7143;DHT22;3613;48.902;9.204;2024-03-08T01:24:57;17.20;99.90
7143;DHT22;3613;48.902;9.204;2024-03-08T01:27:23;17.20;99.90
7143;DHT22;3613;48.902;9.204;2024-03-08T01:29:51;17.20;99.90
7143;DHT22;3613;48.902;9.204;2024-03-08T01:32:16;17.20;99.90
7143;DHT22;3613;48.902;9.204;2024-03-08T01:34:42;17.20;99.90
7143;DHT22;3613;48.902;9.204;2024-03-08T01:37:08;17.20;99.90
7143;DHT22;3613;48.902;9.204;2024-03-08T01:39:33;17.20;99.90
7143;DHT22;3613;48.902;9.204;2024-03-08T01:41:59;17.10;99.90
7143;DHT22;3613;48.902;9.204;2024-03-08T01:44:26;17.30;99.90
7143;DHT22;3613;48.902;9.204;2024-03-08T01:46:52;17.10;99.90
7143;DHT22;3613;48.902;9.204;2024-03-08T01:49:20;17.20;99.90
7143;DHT22;3613;48.902;9.204;2024-03-08T01:51:48;17.10;99.90
7143;DHT22;3613;48.902;9.204;2024-03-08T01:54:17;17.10;99.90
7143;DHT22;3613;48.902;9.204;2024-03-08T01:56:43;17.10;99.90
7143;DHT22;3613;48.902;9.204;2024-03-08T01:59:09;17.10;99.90
7143;DHT22;3613;48.902;9.204;2024-03-08T02:01:35;17.10;99.90
7143;DHT22;3613;48.902;9.204;2024-03-08T02:04:01;17.00;99.90
7143;DHT22;3613;48.902;9.204;2024-03-08T02:06:26;17.10;99.90
7143;DHT22;3613;48.902;9.204;2024-03-08T02:08:52;17.00;99.90
7143;DHT22;3613;48.902;9.204;2024-03-08T02:11:18;17.00;99.90
7143;DHT22;3613;48.902;9.204;2024-03-08T02:13:46;17.00;99.90
7143;DHT22;3613;48.902;9.204;2024-03-08T02:16:11;17.10;99.90
7143;DHT22;3613;48.902;9.204;2024-03-08T02:18:39;17.10;99.90
7143;DHT22;3613;48.902;9.204;2024-03-08T02:21:06;17.10;99.90
7143;DHT22;3613;48.902;9.204;2024-03-08T02:23:33;17.20;99.90
7143;DHT22;3613;48.902;9.204;2024-03-08T02:25:59;17.20;99.90
7143;DHT22;3613;48.902;9.204;2024-03-08T02:28:27;17.10;99.90
7143;DHT22;3613;48.902;9.204;2024-03-08T02:30:54;17.20;99.90
7143;DHT22;3613;48.902;9.204;2024-03-08T02:33:21;17.20;99.90
7143;DHT22;3613;48.902;9.204;2024-03-08T02:35:48;17.20;99.90
7143;DHT22;3613;48.902;9.204;2024-03-08T02:38:19;17.20;99.90
7143;DHT22;3613;48.902;9.204;2024-03-08T02:40:52;17.20;99.90
7143;DHT22;3613;48.902;9.204;2024-03-08T02:43:21;17.20;99.90
7143;DHT22;3613;48.902;9.204;2024-03-08T02:45:55;17.30;99.90
7143;DHT22;3613;48.902;9.204;2024-03-08T02:48:20;17.30;99.90
7143;DHT22;3613;48.902;9.204;2024-03-08T02:50:47;17.30;99.90
7143;DHT22;3613;48.902;9.204;2024-03-08T02:53:13;17.30;99.90
7143;DHT22;3613;48.902;9.204;2024-03-08T02:55:39;17.30;99.90
7143;DHT22;3613;48.902;9.204;2024-03-08T02:58:08;17.40;99.90
7143;DHT22;3613;48.902;9.204;2024-03-08T03:00:36;17.30;99.90
7143;DHT22;3613;48.902;9.204;2024-03-08T03:03:02;17.30;99.90
7143;DHT22;3613;48.902;9.204;2024-03-08T03:05:31;17.30;99.90
7143;DHT22;3613;48.902;9.204;2024-03-08T03:07:59;17.30;99.90
7143;DHT22;3613;48.902;9.204;2024-03-08T03:10:25;17.20;99.90
7143;DHT22;3613;48.902;9.204;2024-03-08T03:12:51;17.30;99.90
7143;DHT22;3613;48.902;9.204;2024-03-08T03:15:17;17.30;99.90
7143;DHT22;3613;48.902;9.204;2024-03-08T03:18:01;17.30;99.90
7143;DHT22;3613;48.902;9.204;2024-03-08T03:20:29;17.20;99.90
7143;DHT22;3613;48.902;9.204;2024-03-08T03:23:06;17.20;99.90
7143;DHT22;3613;48.902;9.204;2024-03-08T03:25:34;17.30;99.90
7143;DHT22;3613;48.902;9.204;2024-03-08T03:28:01;17.20;99.90
7143;DHT22;3613;48.902;9.204;2024-03-08T03:30:26;17.30;99.90
7143;DHT22;3613;48.902;9.204;2024-03-08T03:32:56;17.20;99.90
7143;DHT22;3613;48.902;9.204;2024-03-08T03:35:24;17.10;99.90
7143;DHT22;3613;48.902;9.204;2024-03-08T03:37:49;17.20;99.90
7143;DHT22;3613;48.902;9.204;2024-03-08T03:40:34;17.20;99.90
7143;DHT22;3613;48.902;9.204;2024-03-08T03:43:00;17.10;99.90
7143;DHT22;3613;48.902;9.204;2024-03-08T03:45:29;17.10;99.90
7143;DHT22;3613;48.902;9.204;2024-03-08T03:47:55;17.10;99.90
7143;DHT22;3613;48.902;9.204;2024-03-08T03:50:21;17.20;99.90
7143;DHT22;3613;48.902;9.204;2024-03-08T03:52:47;17.10;99.90
7143;DHT22;3613;48.902;9.204;2024-03-08T03:55:14;17.10;99.90
7143;DHT22;3613;48.902;9.204;2024-03-08T03:57:40;17.10;99.90
7143;DHT22;3613;48.902;9.204;2024-03-08T04:00:08;17.10;99.90
7143;DHT22;3613;48.902;9.204;2024-03-08T04:02:39;17.10;99.90
7143;DHT22;3613;48.902;9.204;2024-03-08T04:05:06;17.10;99.90
7143;DHT22;3613;48.902;9.204;2024-03-08T04:07:37;17.00;99.90
7143;DHT22;3613;48.902;9.204;2024-03-08T04:10:06;17.10;99.90
7143;DHT22;3613;48.902;9.204;2024-03-08T04:12:36;17.00;99.90
7143;DHT22;3613;48.902;9.204;2024-03-08T04:15:01;17.00;99.90
7143;DHT22;3613;48.902;9.204;2024-03-08T04:17:29;17.00;99.90
7143;DHT22;3613;48.902;9.204;2024-03-08T04:19:57;17.00;99.90
7143;DHT22;3613;48.902;9.204;2024-03-08T04:22:26;17.00;99.90
7143;DHT22;3613;48.902;9.204;2024-03-08T04:24:54;16.90;99.90
7143;DHT22;3613;48.902;9.204;2024-03-08T04:27:19;16.90;99.90
7143;DHT22;3613;48.902;9.204;2024-03-08T04:29:45;16.90;99.90
7143;DHT22;3613;48.902;9.204;2024-03-08T04:32:11;17.10;99.90
7143;DHT22;3613;48.902;9.204;2024-03-08T04:34:39;16.90;99.90
7143;DHT22;3613;48.902;9.204;2024-03-08T04:37:05;16.90;99.90
7143;DHT22;3613;48.902;9.204;2024-03-08T04:39:31;16.90;99.90
7143;DHT22;3613;48.902;9.204;2024-03-08T04:42:02;16.90;99.90
7143;DHT22;3613;48.902;9.204;2024-03-08T04:44:32;16.90;99.90
7143;DHT22;3613;48.902;9.204;2024-03-08T04:46:58;16.80;99.90
7143;DHT22;3613;48.902;9.204;2024-03-08T04:49:25;16.80;99.90
7143;DHT22;3613;48.902;9.204;2024-03-08T04:51:53;16.80;99.90
7143;DHT22;3613;48.902;9.204;2024-03-08T04:54:21;16.80;99.90
7143;DHT22;3613;48.902;9.204;2024-03-08T04:56:49;16.90;99.90
7143;DHT22;3613;48.902;9.204;2024-03-08T04:59:15;16.90;99.90
7143;DHT22;3613;48.902;9.204;2024-03-08T05:01:43;16.90;99.90
7143;DHT22;3613;48.902;9.204;2024-03-08T05:04:08;17.00;99.90
7143;DHT22;3613;48.902;9.204;2024-03-08T05:06:34;17.10;99.90
7143;DHT22;3613;48.902;9.204;2024-03-08T05:09:00;17.00;99.90
7143;DHT22;3613;48.902;9.204;2024-03-08T05:11:34;17.00;99.90
7143;DHT22;3613;48.902;9.204;2024-03-08T05:13:59;17.10;99.90
7143;DHT22;3613;48.902;9.204;2024-03-08T05:16:25;17.00;99.90
7143;DHT22;3613;48.902;9.204;2024-03-08T05:18:51;17.00;99.90
7143;DHT22;3613;48.902;9.204;2024-03-08T05:21:16;17.10;99.90
7143;DHT22;3613;48.902;9.204;2024-03-08T05:23:45;17.10;99.90
7143;DHT22;3613;48.902;9.204;2024-03-08T05:26:11;17.10;99.90
7143;DHT22;3613;48.902;9.204;2024-03-08T05:28:36;17.10;99.90
7143;DHT22;3613;48.902;9.204;2024-03-08T05:31:02;17.10;99.90
7143;DHT22;3613;48.902;9.204;2024-03-08T05:33:27;17.10;99.90
7143;DHT22;3613;48.902;9.204;2024-03-08T05:35:53;17.10;99.90
7143;DHT22;3613;48.902;9.204;2024-03-08T05:38:19;17.20;99.90
7143;DHT22;3613;48.902;9.204;2024-03-08T05:40:45;17.10;99.90
7143;DHT22;3613;48.902;9.204;2024-03-08T05:43:11;17.10;99.90
7143;DHT22;3613;48.902;9.204;2024-03-08T05:45:37;17.10;99.90
7143;DHT22;3613;48.902;9.204;2024-03-08T05:48:05;17.10;99.90
7143;DHT22;3613;48.902;9.204;2024-03-08T05:50:31;17.10;99.90
7143;DHT22;3613;48.902;9.204;2024-03-08T05:52:56;17.10;99.90
7143;DHT22;3613;48.902;9.204;2024-03-08T05:55:22;17.00;99.90
7143;DHT22;3613;48.902;9.204;2024-03-08T05:57:50;17.00;99.90
7143;DHT22;3613;48.902;9.204;2024-03-08T06:00:16;17.10;99.90
7143;DHT22;3613;48.902;9.204;2024-03-08T06:02:42;17.10;99.90
7143;DHT22;3613;48.902;9.204;2024-03-08T06:05:10;17.10;99.90
7143;DHT22;3613;48.902;9.204;2024-03-08T06:07:37;17.10;99.90
7143;DHT22;3613;48.902;9.204;2024-03-08T06:10:07;17.10;99.90
7143;DHT22;3613;48.902;9.204;2024-03-08T06:12:32;17.00;99.90
7143;DHT22;3613;48.902;9.204;2024-03-08T06:15:02;17.00;99.90
7143;DHT22;3613;48.902;9.204;2024-03-08T06:17:29;17.00;99.90
7143;DHT22;3613;48.902;9.204;2024-03-08T06:19:55;17.00;99.90
7143;DHT22;3613;48.902;9.204;2024-03-08T06:22:20;16.90;99.90
7143;DHT22;3613;48.902;9.204;2024-03-08T06:24:46;17.00;99.90
7143;DHT22;3613;48.902;9.204;2024-03-08T06:27:15;17.00;99.90
7143;DHT22;3613;48.902;9.204;2024-03-08T06:29:40;17.00;99.90
7143;DHT22;3613;48.902;9.204;2024-03-08T06:32:08;17.00;99.90
7143;DHT22;3613;48.902;9.204;2024-03-08T06:34:34;17.10;99.90
7143;DHT22;3613;48.902;9.204;2024-03-08T06:37:05;17.00;99.90
7143;DHT22;3613;48.902;9.204;2024-03-08T06:39:33;17.00;99.90
7143;DHT22;3613;48.902;9.204;2024-03-08T06:41:59;16.90;99.90
7143;DHT22;3613;48.902;9.204;2024-03-08T06:44:25;16.90;99.90
7143;DHT22;3613;48.902;9.204;2024-03-08T06:46:51;16.90;99.90
7143;DHT22;3613;48.902;9.204;2024-03-08T06:49:18;16.90;99.90
7143;DHT22;3613;48.902;9.204;2024-03-08T06:51:44;16.90;99.90
7143;DHT22;3613;48.902;9.204;2024-03-08T06:54:10;16.90;99.90
7143;DHT22;3613;48.902;9.204;2024-03-08T06:56:38;17.00;99.90
7143;DHT22;3613;48.902;9.204;2024-03-08T06:59:07;18.00;99.90
7143;DHT22;3613;48.902;9.204;2024-03-08T07:01:35;16.90;99.90
7143;DHT22;3613;48.902;9.204;2024-03-08T07:04:02;17.00;99.90
7143;DHT22;3613;48.902;9.204;2024-03-08T07:06:30;16.90;99.90
7143;DHT22;3613;48.902;9.204;2024-03-08T07:08:58;16.90;99.90
7143;DHT22;3613;48.902;9.204;2024-03-08T07:11:24;17.00;99.90
7143;DHT22;3613;48.902;9.204;2024-03-08T07:13:50;16.90;99.90
7143;DHT22;3613;48.902;9.204;2024-03-08T07:16:15;16.90;99.90
7143;DHT22;3613;48.902;9.204;2024-03-08T07:18:41;16.90;99.90
7143;DHT22;3613;48.902;9.204;2024-03-08T07:21:09;16.90;99.90
7143;DHT22;3613;48.902;9.204;2024-03-08T07:23:35;16.80;99.90
7143;DHT22;3613;48.902;9.204;2024-03-08T07:26:20;16.90;99.90
7143;DHT22;3613;48.902;9.204;2024-03-08T07:28:48;16.80;99.90
7143;DHT22;3613;48.902;9.204;2024-03-08T07:31:16;16.90;99.90
7143;DHT22;3613;48.902;9.204;2024-03-08T07:33:52;16.80;99.90
7143;DHT22;3613;48.902;9.204;2024-03-08T07:36:19;16.90;99.90
7143;DHT22;3613;48.902;9.204;2024-03-08T07:38:44;16.90;99.90
7143;DHT22;3613;48.902;9.204;2024-03-08T07:41:12;16.80;99.90
7143;DHT22;3613;48.902;9.204;2024-03-08T07:43:38;16.90;99.90
7143;DHT22;3613;48.902;9.204;2024-03-08T07:46:04;16.80;99.90
7143;DHT22;3613;48.902;9.204;2024-03-08T07:48:29;16.80;99.90
7143;DHT22;3613;48.902;9.204;2024-03-08T07:50:56;16.90;99.90
7143;DHT22;3613;48.902;9.204;2024-03-08T07:53:22;16.80;99.90
7143;DHT22;3613;48.902;9.204;2024-03-08T07:55:49;16.80;99.90
7143;DHT22;3613;48.902;9.204;2024-03-08T07:58:15;16.80;99.90
7143;DHT22;3613;48.902;9.204;2024-03-08T08:00:42;16.80;99.90
7143;DHT22;3613;48.902;9.204;2024-03-08T08:03:08;16.70;99.90
7143;DHT22;3613;48.902;9.204;2024-03-08T08:05:34;16.80;99.90
7143;DHT22;3613;48.902;9.204;2024-03-08T08:08:04;16.80;99.90
7143;DHT22;3613;48.902;9.204;2024-03-08T08:10:32;16.80;99.90
7143;DHT22;3613;48.902;9.204;2024-03-08T08:12:58;16.80;99.90
7143;DHT22;3613;48.902;9.204;2024-03-08T08:15:24;16.80;99.90
7143;DHT22;3613;48.902;9.204;2024-03-08T08:17:49;16.80;99.90
7143;DHT22;3613;48.902;9.204;2024-03-08T08:20:17;16.90;99.90
7143;DHT22;3613;48.902;9.204;2024-03-08T08:22:43;16.80;99.90
7143;DHT22;3613;48.902;9.204;2024-03-08T08:25:09;16.80;99.90
7143;DHT22;3613;48.902;9.204;2024-03-08T08:27:39;16.80;99.90
7143;DHT22;3613;48.902;9.204;2024-03-08T08:30:11;16.80;99.90
7143;DHT22;3613;48.902;9.204;2024-03-08T08:32:37;16.80;99.90
7143;DHT22;3613;48.902;9.204;2024-03-08T08:35:08;16.80;99.90
7143;DHT22;3613;48.902;9.204;2024-03-08T08:37:35;16.80;99.90
7143;DHT22;3613;48.902;9.204;2024-03-08T08:40:06;16.80;99.90
7143;DHT22;3613;48.902;9.204;2024-03-08T08:42:36;16.80;99.90
7143;DHT22;3613;48.902;9.204;2024-03-08T08:45:03;16.80;99.90
7143;DHT22;3613;48.902;9.204;2024-03-08T08:47:29;16.80;99.90
7143;DHT22;3613;48.902;9.204;2024-03-08T08:49:54;16.90;99.90
7143;DHT22;3613;48.902;9.204;2024-03-08T08:52:20;16.80;99.90
7143;DHT22;3613;48.902;9.204;2024-03-08T08:54:46;16.90;99.90
7143;DHT22;3613;48.902;9.204;2024-03-08T08:57:11;16.90;99.90
7143;DHT22;3613;48.902;9.204;2024-03-08T08:59:39;16.90;99.90
7143;DHT22;3613;48.902;9.204;2024-03-08T09:02:06;16.80;99.90
7143;DHT22;3613;48.902;9.204;2024-03-08T09:04:32;16.90;99.90
7143;DHT22;3613;48.902;9.204;2024-03-08T09:06:58;16.80;99.90
7143;DHT22;3613;48.902;9.204;2024-03-08T09:09:23;16.80;99.90
7143;DHT22;3613;48.902;9.204;2024-03-08T09:11:51;16.80;99.90
7143;DHT22;3613;48.902;9.204;2024-03-08T09:14:16;16.90;99.90
7143;DHT22;3613;48.902;9.204;2024-03-08T09:16:42;16.80;99.90
7143;DHT22;3613;48.902;9.204;2024-03-08T09:19:08;16.80;99.90
7143;DHT22;3613;48.902;9.204;2024-03-08T09:21:36;16.80;99.90
7143;DHT22;3613;48.902;9.204;2024-03-08T09:24:02;16.90;99.90
7143;DHT22;3613;48.902;9.204;2024-03-08T09:26:28;16.80;99.90
7143;DHT22;3613;48.902;9.204;2024-03-08T09:28:53;16.80;99.90
7143;DHT22;3613;48.902;9.204;2024-03-08T09:31:22;17.00;99.90
7143;DHT22;3613;48.902;9.204;2024-03-08T09:33:50;16.80;99.90
7143;DHT22;3613;48.902;9.204;2024-03-08T09:36:18;16.80;99.90
7143;DHT22;3613;48.902;9.204;2024-03-08T09:38:44;16.90;99.90
7143;DHT22;3613;48.902;9.204;2024-03-08T09:41:09;16.90;99.90
7143;DHT22;3613;48.902;9.204;2024-03-08T09:43:38;17.00;99.90
7143;DHT22;3613;48.902;9.204;2024-03-08T09:46:04;16.90;99.90
7143;DHT22;3613;48.902;9.204;2024-03-08T09:48:33;16.90;99.90
7143;DHT22;3613;48.902;9.204;2024-03-08T09:51:00;16.90;99.90
7143;DHT22;3613;48.902;9.204;2024-03-08T09:53:25;16.90;99.90
7143;DHT22;3613;48.902;9.204;2024-03-08T09:55:51;16.90;99.90
7143;DHT22;3613;48.902;9.204;2024-03-08T09:58:21;16.90;99.90
7143;DHT22;3613;48.902;9.204;2024-03-08T10:01:00;16.90;99.90
7143;DHT22;3613;48.902;9.204;2024-03-08T10:03:30;16.90;99.90
7143;DHT22;3613;48.902;9.204;2024-03-08T10:05:57;17.00;99.90
7143;DHT22;3613;48.902;9.204;2024-03-08T10:08:29;16.90;99.90
7143;DHT22;3613;48.902;9.204;2024-03-08T10:10:57;16.90;99.90
7143;DHT22;3613;48.902;9.204;2024-03-08T10:13:29;16.90;99.90
7143;DHT22;3613;48.902;9.204;2024-03-08T10:15:57;16.90;99.90
7143;DHT22;3613;48.902;9.204;2024-03-08T10:18:25;16.90;99.90
7143;DHT22;3613;48.902;9.204;2024-03-08T10:21:07;17.00;99.90
7143;DHT22;3613;48.902;9.204;2024-03-08T10:23:36;17.00;99.90
7143;DHT22;3613;48.902;9.204;2024-03-08T10:28:40;17.00;99.90
7143;DHT22;3613;48.902;9.204;2024-03-08T10:31:06;16.90;99.90
7143;DHT22;3613;48.902;9.204;2024-03-08T10:33:32;17.00;99.90
7143;DHT22;3613;48.902;9.204;2024-03-08T10:35:58;17.00;99.90
7143;DHT22;3613;48.902;9.204;2024-03-08T10:38:26;17.10;99.90
7143;DHT22;3613;48.902;9.204;2024-03-08T10:40:52;17.30;99.90
7143;DHT22;3613;48.902;9.204;2024-03-08T10:43:23;16.90;99.90
7143;DHT22;3613;48.902;9.204;2024-03-08T10:45:56;17.10;99.90
7143;DHT22;3613;48.902;9.204;2024-03-08T10:48:31;17.10;99.90
7143;DHT22;3613;48.902;9.204;2024-03-08T10:51:00;17.10;99.90
7143;DHT22;3613;48.902;9.204;2024-03-08T10:53:28;17.10;99.90
7143;DHT22;3613;48.902;9.204;2024-03-08T10:55:57;17.00;99.90
7143;DHT22;3613;48.902;9.204;2024-03-08T10:58:25;17.00;99.90
7143;DHT22;3613;48.902;9.204;2024-03-08T11:00:55;17.10;99.90
7143;DHT22;3613;48.902;9.204;2024-03-08T11:08:44;17.10;99.90
7143;DHT22;3613;48.902;9.204;2024-03-08T11:11:32;17.10;99.90
7143;DHT22;3613;48.902;9.204;2024-03-08T11:13:58;17.20;99.90
7143;DHT22;3613;48.902;9.204;2024-03-08T11:18:59;17.20;99.90
7143;DHT22;3613;48.902;9.204;2024-03-08T11:21:34;17.30;99.90
7143;DHT22;3613;48.902;9.204;2024-03-08T11:24:00;17.20;99.90
7143;DHT22;3613;48.902;9.204;2024-03-08T11:26:29;17.30;99.90
7143;DHT22;3613;48.902;9.204;2024-03-08T11:29:49;17.20;99.90
7143;DHT22;3613;48.902;9.204;2024-03-08T11:32:18;17.20;99.90
7143;DHT22;3613;48.902;9.204;2024-03-08T11:34:46;17.20;99.90
7143;DHT22;3613;48.902;9.204;2024-03-08T11:37:15;17.20;99.90
7143;DHT22;3613;48.902;9.204;2024-03-08T11:39:46;17.20;99.90
7143;DHT22;3613;48.902;9.204;2024-03-08T11:42:14;17.20;99.90
7143;DHT22;3613;48.902;9.204;2024-03-08T11:44:41;17.20;99.90
7143;DHT22;3613;48.902;9.204;2024-03-08T11:47:10;17.20;99.90
7143;DHT22;3613;48.902;9.204;2024-03-08T11:49:36;17.20;99.90
7143;DHT22;3613;48.902;9.204;2024-03-08T11:52:02;17.20;99.90
7143;DHT22;3613;48.902;9.204;2024-03-08T11:54:30;17.20;99.90
7143;DHT22;3613;48.902;9.204;2024-03-08T11:56:59;17.20;99.90
7143;DHT22;3613;48.902;9.204;2024-03-08T11:59:28;17.20;99.90
7143;DHT22;3613;48.902;9.204;2024-03-08T12:02:02;17.10;99.90
7143;DHT22;3613;48.902;9.204;2024-03-08T12:04:29;17.20;99.90
7143;DHT22;3613;48.902;9.204;2024-03-08T12:06:59;17.20;99.90
7143;DHT22;3613;48.902;9.204;2024-03-08T12:09:30;17.20;99.90
7143;DHT22;3613;48.902;9.204;2024-03-08T12:11:58;17.00;99.90
7143;DHT22;3613;48.902;9.204;2024-03-08T12:14:24;17.10;99.90
7143;DHT22;3613;48.902;9.204;2024-03-08T12:16:51;17.20;99.90
7143;DHT22;3613;48.902;9.204;2024-03-08T12:19:17;17.20;99.90
7143;DHT22;3613;48.902;9.204;2024-03-08T12:21:42;17.10;99.90
7143;DHT22;3613;48.902;9.204;2024-03-08T12:24:15;17.20;99.90
7143;DHT22;3613;48.902;9.204;2024-03-08T12:26:45;17.10;99.90
7143;DHT22;3613;48.902;9.204;2024-03-08T12:29:24;17.20;99.90
7143;DHT22;3613;48.902;9.204;2024-03-08T12:31:58;17.20;99.90
7143;DHT22;3613;48.902;9.204;2024-03-08T12:34:26;17.20;99.90
7143;DHT22;3613;48.902;9.204;2024-03-08T12:36:54;17.10;99.90
7143;DHT22;3613;48.902;9.204;2024-03-08T12:39:23;17.10;99.90
7143;DHT22;3613;48.902;9.204;2024-03-08T12:41:55;17.10;99.90
7143;DHT22;3613;48.902;9.204;2024-03-08T12:44:22;17.20;99.90
7143;DHT22;3613;48.902;9.204;2024-03-08T12:46:48;17.20;99.90
7143;DHT22;3613;48.902;9.204;2024-03-08T12:49:14;17.20;99.90
7143;DHT22;3613;48.902;9.204;2024-03-08T12:51:44;17.20;99.90
7143;DHT22;3613;48.902;9.204;2024-03-08T12:54:10;17.10;99.90
7143;DHT22;3613;48.902;9.204;2024-03-08T12:56:38;17.20;99.90
7143;DHT22;3613;48.902;9.204;2024-03-08T12:59:06;17.20;99.90
7143;DHT22;3613;48.902;9.204;2024-03-08T13:01:35;17.20;99.90
7143;DHT22;3613;48.902;9.204;2024-03-08T13:04:04;17.10;99.90
7143;DHT22;3613;48.902;9.204;2024-03-08T13:06:32;17.20;99.90
7143;DHT22;3613;48.902;9.204;2024-03-08T13:08:58;17.20;99.90
7143;DHT22;3613;48.902;9.204;2024-03-08T13:11:25;17.20;99.90
7143;DHT22;3613;48.902;9.204;2024-03-08T13:13:53;17.20;99.90
7143;DHT22;3613;48.902;9.204;2024-03-08T13:16:21;17.20;99.90
7143;DHT22;3613;48.902;9.204;2024-03-08T13:18:49;17.20;99.90
7143;DHT22;3613;48.902;9.204;2024-03-08T13:21:15;17.20;99.90
7143;DHT22;3613;48.902;9.204;2024-03-08T13:23:43;17.20;99.90
7143;DHT22;3613;48.902;9.204;2024-03-08T13:26:15;17.20;99.90
7143;DHT22;3613;48.902;9.204;2024-03-08T13:28:48;17.10;99.90
7143;DHT22;3613;48.902;9.204;2024-03-08T13:31:20;17.20;99.90
7143;DHT22;3613;48.902;9.204;2024-03-08T13:33:46;17.20;99.90
7143;DHT22;3613;48.902;9.204;2024-03-08T13:36:12;17.30;99.90
7143;DHT22;3613;48.902;9.204;2024-03-08T13:38:45;17.20;99.90
7143;DHT22;3613;48.902;9.204;2024-03-08T13:41:12;17.20;99.90
7143;DHT22;3613;48.902;9.204;2024-03-08T13:43:43;17.30;99.90
7143;DHT22;3613;48.902;9.204;2024-03-08T13:46:13;17.20;99.90
7143;DHT22;3613;48.902;9.204;2024-03-08T13:48:39;17.10;99.90
7143;DHT22;3613;48.902;9.204;2024-03-08T13:51:05;17.30;99.90
7143;DHT22;3613;48.902;9.204;2024-03-08T13:53:38;17.20;99.90
7143;DHT22;3613;48.902;9.204;2024-03-08T13:56:04;17.20;99.90
7143;DHT22;3613;48.902;9.204;2024-03-08T13:58:33;17.20;99.90
7143;DHT22;3613;48.902;9.204;2024-03-08T14:01:00;17.20;99.90
7143;DHT22;3613;48.902;9.204;2024-03-08T14:03:28;17.20;99.90
7143;DHT22;3613;48.902;9.204;2024-03-08T14:05:54;17.20;99.90
7143;DHT22;3613;48.902;9.204;2024-03-08T14:08:20;17.20;99.90
7143;DHT22;3613;48.902;9.204;2024-03-08T14:10:47;17.20;99.90
7143;DHT22;3613;48.902;9.204;2024-03-08T14:13:14;17.20;99.90
7143;DHT22;3613;48.902;9.204;2024-03-08T14:15:41;17.20;99.90
7143;DHT22;3613;48.902;9.204;2024-03-08T14:18:08;17.20;99.90
7143;DHT22;3613;48.902;9.204;2024-03-08T14:20:33;17.20;99.90
7143;DHT22;3613;48.902;9.204;2024-03-08T14:22:59;17.30;99.90
7143;DHT22;3613;48.902;9.204;2024-03-08T14:25:24;17.30;99.90
7143;DHT22;3613;48.902;9.204;2024-03-08T14:27:53;17.20;99.90
7143;DHT22;3613;48.902;9.204;2024-03-08T14:30:23;17.20;99.90
7143;DHT22;3613;48.902;9.204;2024-03-08T14:33:04;17.20;99.90
7143;DHT22;3613;48.902;9.204;2024-03-08T14:35:38;17.20;99.90
7143;DHT22;3613;48.902;9.204;2024-03-08T14:38:04;17.20;99.90
7143;DHT22;3613;48.902;9.204;2024-03-08T14:40:30;17.20;99.90
7143;DHT22;3613;48.902;9.204;2024-03-08T14:42:58;17.20;99.90
7143;DHT22;3613;48.902;9.204;2024-03-08T14:45:23;17.30;99.90
7143;DHT22;3613;48.902;9.204;2024-03-08T14:47:52;17.20;99.90
7143;DHT22;3613;48.902;9.204;2024-03-08T14:50:19;17.20;99.90
7143;DHT22;3613;48.902;9.204;2024-03-08T14:52:45;17.20;99.90
7143;DHT22;3613;48.902;9.204;2024-03-08T14:55:15;17.30;99.90
7143;DHT22;3613;48.902;9.204;2024-03-08T14:57:41;17.20;99.90
7143;DHT22;3613;48.902;9.204;2024-03-08T15:00:11;17.20;99.90
7143;DHT22;3613;48.902;9.204;2024-03-08T15:02:54;17.20;99.90
7143;DHT22;3613;48.902;9.204;2024-03-08T15:05:21;17.20;99.90
7143;DHT22;3613;48.902;9.204;2024-03-08T15:07:52;17.20;99.90
7143;DHT22;3613;48.902;9.204;2024-03-08T15:10:17;17.20;99.90
7143;DHT22;3613;48.902;9.204;2024-03-08T15:12:46;17.20;99.90
7143;DHT22;3613;48.902;9.204;2024-03-08T15:15:12;17.20;99.90
7143;DHT22;3613;48.902;9.204;2024-03-08T15:17:41;17.30;99.90
7143;DHT22;3613;48.902;9.204;2024-03-08T15:20:08;17.20;99.90
7143;DHT22;3613;48.902;9.204;2024-03-08T15:22:42;17.20;99.90
7143;DHT22;3613;48.902;9.204;2024-03-08T15:25:09;17.30;99.90
7143;DHT22;3613;48.902;9.204;2024-03-08T15:27:38;17.30;99.90
7143;DHT22;3613;48.902;9.204;2024-03-08T15:30:11;17.30;99.90
7143;DHT22;3613;48.902;9.204;2024-03-08T15:32:47;17.20;99.90
7143;DHT22;3613;48.902;9.204;2024-03-08T15:35:17;17.20;99.90
7143;DHT22;3613;48.902;9.204;2024-03-08T15:37:44;17.20;99.90
7143;DHT22;3613;48.902;9.204;2024-03-08T15:40:14;17.20;99.90
7143;DHT22;3613;48.902;9.204;2024-03-08T15:45:22;17.20;99.90
7143;DHT22;3613;48.902;9.204;2024-03-08T15:47:55;17.30;99.90
7143;DHT22;3613;48.902;9.204;2024-03-08T15:50:21;17.20;99.90
7143;DHT22;3613;48.902;9.204;2024-03-08T15:52:51;17.30;99.90
7143;DHT22;3613;48.902;9.204;2024-03-08T15:55:20;17.30;99.90
7143;DHT22;3613;48.902;9.204;2024-03-08T15:57:48;17.30;99.90
7143;DHT22;3613;48.902;9.204;2024-03-08T16:00:19;17.20;99.90
7143;DHT22;3613;48.902;9.204;2024-03-08T16:03:05;17.20;99.90
7143;DHT22;3613;48.902;9.204;2024-03-08T16:05:41;17.40;99.90
7143;DHT22;3613;48.902;9.204;2024-03-08T16:08:17;17.20;99.90
7143;DHT22;3613;48.902;9.204;2024-03-08T16:10:53;17.30;99.90
7143;DHT22;3613;48.902;9.204;2024-03-08T16:13:33;17.20;99.90
7143;DHT22;3613;48.902;9.204;2024-03-08T16:16:05;17.20;99.90
7143;DHT22;3613;48.902;9.204;2024-03-08T16:18:31;17.20;99.90
7143;DHT22;3613;48.902;9.204;2024-03-08T16:21:00;17.20;99.90